»·PEaware :: N519EB KSBP-KSMX

N519EB :: KSBP-KSMX

FLIGHT INFORMATION

Flight Status: Arrived
Operator: Privately registered:
United States
More flights under this callsign
Pilot: Eric B. (20616)
Aircraft: Unknown
(DA62)
More flights by this aircraft type
Origin: KSBP San Luis Co Regl
United States
Destination: KSMX Santa Maria Pub/Capt Hancock
United States
More flights between these airports :: More routes between these airports
Route: +DRCT
File this flight plan on PilotEdge
Remarks: CAT 4
Altitude:
(Current/Filed)
3,500ft
Speed:
(Current/Filed)
159kts
Departed: 02-Mar-19 02:33 PM
Arrived: 02-Mar-19 02:45 PM
Distance/Time
Traveled:
23nm/0:12
Distance/Time
To Go:
Arrived

Flight Plot

Page will automatically refresh every two minutes.

Flight plan parsing failed; only flown route is shown


Map Options




Map Legend


Flown Route
Filed Route
Departure Airport
Arrival Airport
Navaid (VOR, NDB)
Fix

Horizontal Profiles

Position Reports

Time Latitude Longitude Heading Altitude Ground
Speed
02-Mar-19 13:53 35.238564 -120.639589 359 216ft 0kts
02-Mar-19 13:54 35.238564 -120.639589 359 216ft 0kts
02-Mar-19 13:55 35.238564 -120.639589 359 216ft 0kts
02-Mar-19 13:56 35.238564 -120.639589 359 216ft 0kts
02-Mar-19 13:57 35.238564 -120.639589 359 216ft 0kts
02-Mar-19 13:58 35.238564 -120.639589 359 216ft 0kts
02-Mar-19 13:59 35.238564 -120.639589 359 216ft 0kts
02-Mar-19 14:00 35.238564 -120.639589 359 216ft 0kts
02-Mar-19 14:01 35.238564 -120.639589 359 216ft 0kts
02-Mar-19 14:02 35.238564 -120.639589 359 216ft 0kts
02-Mar-19 14:03 35.238564 -120.639589 359 216ft 0kts
02-Mar-19 14:04 35.238564 -120.639589 359 216ft 0kts
02-Mar-19 14:05 35.238564 -120.639589 359 216ft 0kts
02-Mar-19 14:06 35.238564 -120.639589 359 216ft 0kts
02-Mar-19 14:07 35.238564 -120.639589 359 216ft 0kts
02-Mar-19 14:08 35.238564 -120.639589 359 216ft 0kts
02-Mar-19 14:09 35.238564 -120.639589 359 216ft 0kts
02-Mar-19 14:10 35.238564 -120.639589 359 216ft 0kts
02-Mar-19 14:11 35.238564 -120.639589 359 216ft 0kts
02-Mar-19 14:12 35.238564 -120.639589 359 216ft 0kts
02-Mar-19 14:13 35.238564 -120.639589 359 216ft 0kts
02-Mar-19 14:14 35.238564 -120.639589 359 216ft 0kts
02-Mar-19 14:15 35.238564 -120.639589 359 216ft 0kts
02-Mar-19 14:16 35.238564 -120.639589 359 216ft 0kts
02-Mar-19 14:17 35.238564 -120.639589 359 216ft 0kts
02-Mar-19 14:18 35.238564 -120.639589 359 216ft 0kts
02-Mar-19 14:19 35.238564 -120.639589 359 216ft 0kts
02-Mar-19 14:20 35.238564 -120.639589 359 216ft 0kts
02-Mar-19 14:21 35.238564 -120.639589 359 216ft 0kts
02-Mar-19 14:22 35.238564 -120.639589 359 216ft 0kts
02-Mar-19 14:23 35.238564 -120.639589 359 216ft 0kts
02-Mar-19 14:24 35.238286 -120.640106 215 216ft 3kts
02-Mar-19 14:25 35.237530 -120.639418 123 216ft 5kts
02-Mar-19 14:26 35.236586 -120.637770 125 216ft 6kts
02-Mar-19 14:27 35.235461 -120.635798 126 216ft 7kts
02-Mar-19 14:28 35.234425 -120.633992 126 216ft 5kts
02-Mar-19 14:29 35.233458 -120.632323 146 216ft 6kts
02-Mar-19 14:30 35.233168 -120.632346 210 216ft 0kts
02-Mar-19 14:31 35.232792 -120.633036 303 216ft 0kts
02-Mar-19 14:32 35.234772 -120.636591 304 216ft 73kts
02-Mar-19 14:33 35.250158 -120.663867 273 1124ft 105kts
02-Mar-19 14:34 35.229297 -120.670325 127 2171ft 122kts
02-Mar-19 14:35 35.207308 -120.634960 126 3104ft 131kts
02-Mar-19 14:36 35.172304 -120.608033 168 2720ft 160kts
02-Mar-19 14:37 35.134460 -120.596290 150 3500ft 145kts
02-Mar-19 14:38 35.097736 -120.566534 144 3501ft 165kts
02-Mar-19 14:39 35.059289 -120.534087 145 3502ft 168kts
02-Mar-19 14:40 35.018240 -120.509990 155 3264ft 164kts
02-Mar-19 14:41 34.974581 -120.496464 193 2537ft 167kts
02-Mar-19 14:42 34.935840 -120.490904 156 1361ft 110kts
02-Mar-19 14:43 34.913524 -120.470604 135 476ft 86kts
02-Mar-19 14:44 34.900718 -120.455293 133 265ft 35kts
02-Mar-19 14:45 34.898841 -120.451384 91 265ft 1kts
02-Mar-19 14:46 34.898837 -120.451156 91 265ft 0kts
02-Mar-19 14:47 34.898569 -120.450269 136 265ft 4kts
02-Mar-19 14:48 34.897394 -120.448901 135 265ft 6kts
02-Mar-19 14:49 34.896921 -120.447420 44 265ft 3kts
02-Mar-19 14:50 34.897299 -120.446684 138 265ft 2kts
02-Mar-19 14:51 34.897282 -120.446666 139 265ft 0kts
02-Mar-19 14:52 34.897282 -120.446666 139 265ft 0kts
02-Mar-19 14:53 34.897282 -120.446666 139 265ft 0kts
02-Mar-19 14:54 34.897282 -120.446666 139 265ft 0kts
02-Mar-19 14:55 34.897282 -120.446666 139 265ft 0kts
02-Mar-19 14:56 34.897282 -120.446666 139 265ft 0kts

Navigation Log

Ident Type
Flight plan parsing failed, navigation log unavailable